sensor_id;sensor_type;location;lat;lon;timestamp;P1;durP1;ratioP1;P2;durP2;ratioP2
38783;SDS011;24531;45.502;12.238;2023-04-24T00:02:03;14.65;;;9.88;;
38783;SDS011;24531;45.502;12.238;2023-04-24T00:04:31;12.88;;;8.57;;
38783;SDS011;24531;45.502;12.238;2023-04-24T00:06:57;15.68;;;9.63;;
38783;SDS011;24531;45.502;12.238;2023-04-24T00:09:24;12.82;;;8.93;;
38783;SDS011;24531;45.502;12.238;2023-04-24T00:11:51;15.95;;;8.63;;
38783;SDS011;24531;45.502;12.238;2023-04-24T00:14:17;15.23;;;9.32;;
38783;SDS011;24531;45.502;12.238;2023-04-24T00:16:43;11.73;;;8.68;;
38783;SDS011;24531;45.502;12.238;2023-04-24T00:19:08;15.73;;;9.25;;
38783;SDS011;24531;45.502;12.238;2023-04-24T00:21:34;14.85;;;9.52;;
38783;SDS011;24531;45.502;12.238;2023-04-24T00:24:00;10.40;;;8.20;;
38783;SDS011;24531;45.502;12.238;2023-04-24T00:26:25;15.45;;;10.65;;
38783;SDS011;24531;45.502;12.238;2023-04-24T00:28:51;24.17;;;9.48;;
38783;SDS011;24531;45.502;12.238;2023-04-24T00:31:16;14.38;;;9.20;;
38783;SDS011;24531;45.502;12.238;2023-04-24T00:33:42;11.20;;;8.80;;
38783;SDS011;24531;45.502;12.238;2023-04-24T00:36:08;20.13;;;10.02;;
38783;SDS011;24531;45.502;12.238;2023-04-24T00:38:34;15.32;;;9.63;;
38783;SDS011;24531;45.502;12.238;2023-04-24T00:41:00;16.13;;;9.80;;
38783;SDS011;24531;45.502;12.238;2023-04-24T00:43:25;16.27;;;9.02;;
38783;SDS011;24531;45.502;12.238;2023-04-24T00:45:51;12.18;;;9.20;;
38783;SDS011;24531;45.502;12.238;2023-04-24T00:48:16;11.40;;;8.77;;
38783;SDS011;24531;45.502;12.238;2023-04-24T00:50:43;12.43;;;9.38;;
38783;SDS011;24531;45.502;12.238;2023-04-24T00:53:09;12.05;;;9.43;;
38783;SDS011;24531;45.502;12.238;2023-04-24T00:55:34;15.60;;;9.13;;
38783;SDS011;24531;45.502;12.238;2023-04-24T00:58:02;15.23;;;8.90;;
38783;SDS011;24531;45.502;12.238;2023-04-24T01:00:29;12.80;;;9.27;;
38783;SDS011;24531;45.502;12.238;2023-04-24T01:02:55;16.00;;;9.52;;
38783;SDS011;24531;45.502;12.238;2023-04-24T01:05:24;14.05;;;8.68;;
38783;SDS011;24531;45.502;12.238;2023-04-24T01:07:50;16.23;;;9.43;;
38783;SDS011;24531;45.502;12.238;2023-04-24T01:10:16;15.30;;;10.75;;
38783;SDS011;24531;45.502;12.238;2023-04-24T01:12:42;15.00;;;9.55;;
38783;SDS011;24531;45.502;12.238;2023-04-24T01:15:08;15.18;;;10.38;;
38783;SDS011;24531;45.502;12.238;2023-04-24T01:17:34;16.90;;;10.77;;
38783;SDS011;24531;45.502;12.238;2023-04-24T01:20:00;13.63;;;9.70;;
38783;SDS011;24531;45.502;12.238;2023-04-24T01:22:29;13.38;;;10.38;;
38783;SDS011;24531;45.502;12.238;2023-04-24T01:24:54;15.45;;;9.65;;
38783;SDS011;24531;45.502;12.238;2023-04-24T01:27:20;15.00;;;9.48;;
38783;SDS011;24531;45.502;12.238;2023-04-24T01:29:46;14.88;;;9.80;;
38783;SDS011;24531;45.502;12.238;2023-04-24T01:32:15;14.52;;;10.18;;
38783;SDS011;24531;45.502;12.238;2023-04-24T01:34:41;16.10;;;10.35;;
38783;SDS011;24531;45.502;12.238;2023-04-24T01:37:07;15.52;;;9.52;;
38783;SDS011;24531;45.502;12.238;2023-04-24T01:39:33;14.93;;;10.48;;
38783;SDS011;24531;45.502;12.238;2023-04-24T01:41:59;16.83;;;10.85;;
38783;SDS011;24531;45.502;12.238;2023-04-24T01:44:27;11.32;;;9.40;;
38783;SDS011;24531;45.502;12.238;2023-04-24T01:46:53;15.18;;;11.38;;
38783;SDS011;24531;45.502;12.238;2023-04-24T01:49:20;17.63;;;10.95;;
38783;SDS011;24531;45.502;12.238;2023-04-24T01:51:46;16.50;;;11.20;;
38783;SDS011;24531;45.502;12.238;2023-04-24T01:54:12;14.35;;;10.90;;
38783;SDS011;24531;45.502;12.238;2023-04-24T01:56:40;17.83;;;10.95;;
38783;SDS011;24531;45.502;12.238;2023-04-24T01:59:07;16.50;;;11.38;;
38783;SDS011;24531;45.502;12.238;2023-04-24T02:01:36;18.58;;;11.90;;
38783;SDS011;24531;45.502;12.238;2023-04-24T02:04:02;16.52;;;11.10;;
38783;SDS011;24531;45.502;12.238;2023-04-24T02:06:29;15.10;;;11.15;;
38783;SDS011;24531;45.502;12.238;2023-04-24T02:08:56;15.23;;;10.05;;
38783;SDS011;24531;45.502;12.238;2023-04-24T02:11:25;13.95;;;10.80;;
38783;SDS011;24531;45.502;12.238;2023-04-24T02:13:51;16.48;;;11.13;;
38783;SDS011;24531;45.502;12.238;2023-04-24T02:16:17;14.98;;;10.45;;
38783;SDS011;24531;45.502;12.238;2023-04-24T02:18:43;18.55;;;11.43;;
38783;SDS011;24531;45.502;12.238;2023-04-24T02:21:09;14.68;;;11.02;;
38783;SDS011;24531;45.502;12.238;2023-04-24T02:23:35;14.55;;;11.68;;
38783;SDS011;24531;45.502;12.238;2023-04-24T02:26:00;12.93;;;10.77;;
38783;SDS011;24531;45.502;12.238;2023-04-24T02:28:26;18.77;;;10.93;;
38783;SDS011;24531;45.502;12.238;2023-04-24T02:30:52;16.55;;;11.93;;
38783;SDS011;24531;45.502;12.238;2023-04-24T02:33:17;16.90;;;10.88;;
38783;SDS011;24531;45.502;12.238;2023-04-24T02:35:43;18.80;;;11.13;;
38783;SDS011;24531;45.502;12.238;2023-04-24T02:38:08;17.27;;;11.88;;
38783;SDS011;24531;45.502;12.238;2023-04-24T02:40:34;15.77;;;11.52;;
38783;SDS011;24531;45.502;12.238;2023-04-24T02:43:00;17.08;;;12.20;;
38783;SDS011;24531;45.502;12.238;2023-04-24T02:45:25;15.30;;;11.48;;
38783;SDS011;24531;45.502;12.238;2023-04-24T02:47:51;21.05;;;12.35;;
38783;SDS011;24531;45.502;12.238;2023-04-24T02:50:17;20.70;;;11.30;;
38783;SDS011;24531;45.502;12.238;2023-04-24T02:52:42;16.67;;;11.02;;
38783;SDS011;24531;45.502;12.238;2023-04-24T02:55:08;14.80;;;10.10;;
38783;SDS011;24531;45.502;12.238;2023-04-24T02:57:34;16.52;;;10.77;;
38783;SDS011;24531;45.502;12.238;2023-04-24T02:59:59;21.10;;;11.45;;
38783;SDS011;24531;45.502;12.238;2023-04-24T03:02:25;14.63;;;10.57;;
38783;SDS011;24531;45.502;12.238;2023-04-24T03:04:51;18.17;;;9.68;;
38783;SDS011;24531;45.502;12.238;2023-04-24T03:07:16;15.80;;;10.52;;
38783;SDS011;24531;45.502;12.238;2023-04-24T03:09:45;14.63;;;9.85;;
38783;SDS011;24531;45.502;12.238;2023-04-24T03:12:11;16.23;;;10.02;;
38783;SDS011;24531;45.502;12.238;2023-04-24T03:14:37;15.85;;;10.85;;
38783;SDS011;24531;45.502;12.238;2023-04-24T03:17:02;15.98;;;9.93;;
38783;SDS011;24531;45.502;12.238;2023-04-24T03:19:28;16.40;;;10.63;;
38783;SDS011;24531;45.502;12.238;2023-04-24T03:21:53;17.73;;;10.65;;
38783;SDS011;24531;45.502;12.238;2023-04-24T03:24:19;15.68;;;11.00;;
38783;SDS011;24531;45.502;12.238;2023-04-24T03:26:45;18.90;;;10.05;;
38783;SDS011;24531;45.502;12.238;2023-04-24T03:29:11;16.70;;;10.43;;
38783;SDS011;24531;45.502;12.238;2023-04-24T03:31:36;14.65;;;10.77;;
38783;SDS011;24531;45.502;12.238;2023-04-24T03:34:02;14.85;;;10.00;;
38783;SDS011;24531;45.502;12.238;2023-04-24T03:36:27;15.80;;;10.65;;
38783;SDS011;24531;45.502;12.238;2023-04-24T03:38:53;16.00;;;10.05;;
38783;SDS011;24531;45.502;12.238;2023-04-24T03:41:19;16.27;;;10.88;;
38783;SDS011;24531;45.502;12.238;2023-04-24T03:43:44;19.25;;;10.68;;
38783;SDS011;24531;45.502;12.238;2023-04-24T03:46:10;13.07;;;9.57;;
38783;SDS011;24531;45.502;12.238;2023-04-24T03:48:35;19.30;;;9.98;;
38783;SDS011;24531;45.502;12.238;2023-04-24T03:51:01;20.00;;;10.27;;
38783;SDS011;24531;45.502;12.238;2023-04-24T03:53:27;15.52;;;9.07;;
38783;SDS011;24531;45.502;12.238;2023-04-24T03:55:53;15.07;;;9.77;;
38783;SDS011;24531;45.502;12.238;2023-04-24T03:58:18;19.75;;;11.27;;
38783;SDS011;24531;45.502;12.238;2023-04-24T04:00:44;13.82;;;9.50;;
38783;SDS011;24531;45.502;12.238;2023-04-24T04:03:12;13.32;;;8.70;;
38783;SDS011;24531;45.502;12.238;2023-04-24T04:05:39;14.02;;;9.30;;
38783;SDS011;24531;45.502;12.238;2023-04-24T04:08:05;14.68;;;9.82;;
38783;SDS011;24531;45.502;12.238;2023-04-24T04:10:30;17.02;;;9.85;;
38783;SDS011;24531;45.502;12.238;2023-04-24T04:12:56;18.75;;;10.82;;
38783;SDS011;24531;45.502;12.238;2023-04-24T04:15:22;15.40;;;10.02;;
38783;SDS011;24531;45.502;12.238;2023-04-24T04:17:47;15.95;;;9.95;;
38783;SDS011;24531;45.502;12.238;2023-04-24T04:20:13;16.10;;;9.82;;
38783;SDS011;24531;45.502;12.238;2023-04-24T04:22:39;20.60;;;10.57;;
38783;SDS011;24531;45.502;12.238;2023-04-24T04:25:04;21.77;;;11.70;;
38783;SDS011;24531;45.502;12.238;2023-04-24T04:27:30;12.23;;;10.00;;
38783;SDS011;24531;45.502;12.238;2023-04-24T04:29:57;15.00;;;10.70;;
38783;SDS011;24531;45.502;12.238;2023-04-24T04:32:26;21.45;;;11.27;;
38783;SDS011;24531;45.502;12.238;2023-04-24T04:34:51;15.52;;;9.35;;
38783;SDS011;24531;45.502;12.238;2023-04-24T04:37:18;15.95;;;10.23;;
38783;SDS011;24531;45.502;12.238;2023-04-24T04:39:44;13.68;;;10.02;;
38783;SDS011;24531;45.502;12.238;2023-04-24T04:42:09;16.40;;;10.05;;
38783;SDS011;24531;45.502;12.238;2023-04-24T04:44:35;15.25;;;11.15;;
38783;SDS011;24531;45.502;12.238;2023-04-24T04:47:01;14.93;;;10.82;;
38783;SDS011;24531;45.502;12.238;2023-04-24T04:49:30;23.75;;;16.67;;
38783;SDS011;24531;45.502;12.238;2023-04-24T04:51:56;23.75;;;12.88;;
38783;SDS011;24531;45.502;12.238;2023-04-24T04:54:22;22.83;;;12.60;;
38783;SDS011;24531;45.502;12.238;2023-04-24T04:56:49;20.08;;;12.02;;
38783;SDS011;24531;45.502;12.238;2023-04-24T04:59:15;17.42;;;10.10;;
38783;SDS011;24531;45.502;12.238;2023-04-24T05:01:41;14.40;;;10.40;;
38783;SDS011;24531;45.502;12.238;2023-04-24T05:04:07;14.85;;;9.75;;
38783;SDS011;24531;45.502;12.238;2023-04-24T05:06:32;18.40;;;11.25;;
38783;SDS011;24531;45.502;12.238;2023-04-24T05:08:58;21.88;;;10.88;;
38783;SDS011;24531;45.502;12.238;2023-04-24T05:11:23;17.27;;;10.85;;
38783;SDS011;24531;45.502;12.238;2023-04-24T05:13:50;23.48;;;10.18;;
38783;SDS011;24531;45.502;12.238;2023-04-24T05:16:15;15.60;;;11.05;;
38783;SDS011;24531;45.502;12.238;2023-04-24T05:18:41;17.42;;;11.40;;
38783;SDS011;24531;45.502;12.238;2023-04-24T05:21:06;18.27;;;10.90;;
38783;SDS011;24531;45.502;12.238;2023-04-24T05:23:32;18.50;;;11.95;;
38783;SDS011;24531;45.502;12.238;2023-04-24T05:25:58;20.65;;;12.10;;
38783;SDS011;24531;45.502;12.238;2023-04-24T05:28:23;25.35;;;12.18;;
38783;SDS011;24531;45.502;12.238;2023-04-24T05:30:53;18.23;;;11.70;;
38783;SDS011;24531;45.502;12.238;2023-04-24T05:33:21;19.33;;;12.45;;
38783;SDS011;24531;45.502;12.238;2023-04-24T05:35:47;17.63;;;11.45;;
38783;SDS011;24531;45.502;12.238;2023-04-24T05:38:13;19.20;;;11.00;;
38783;SDS011;24531;45.502;12.238;2023-04-24T05:40:42;21.08;;;11.10;;
38783;SDS011;24531;45.502;12.238;2023-04-24T05:43:08;15.32;;;11.20;;
38783;SDS011;24531;45.502;12.238;2023-04-24T05:45:33;18.95;;;10.75;;
38783;SDS011;24531;45.502;12.238;2023-04-24T05:48:01;19.13;;;11.23;;
38783;SDS011;24531;45.502;12.238;2023-04-24T05:50:27;18.60;;;11.20;;
38783;SDS011;24531;45.502;12.238;2023-04-24T05:52:53;14.00;;;10.43;;
38783;SDS011;24531;45.502;12.238;2023-04-24T05:55:18;17.63;;;11.43;;
38783;SDS011;24531;45.502;12.238;2023-04-24T05:57:44;20.13;;;10.77;;
38783;SDS011;24531;45.502;12.238;2023-04-24T06:00:11;15.05;;;10.45;;
38783;SDS011;24531;45.502;12.238;2023-04-24T06:02:37;18.98;;;11.10;;
38783;SDS011;24531;45.502;12.238;2023-04-24T06:05:03;17.67;;;11.07;;
38783;SDS011;24531;45.502;12.238;2023-04-24T06:07:29;17.10;;;11.40;;
38783;SDS011;24531;45.502;12.238;2023-04-24T06:09:55;15.80;;;10.93;;
38783;SDS011;24531;45.502;12.238;2023-04-24T06:12:21;21.45;;;11.82;;
38783;SDS011;24531;45.502;12.238;2023-04-24T06:14:47;19.27;;;12.85;;
38783;SDS011;24531;45.502;12.238;2023-04-24T06:17:13;17.58;;;11.48;;
38783;SDS011;24531;45.502;12.238;2023-04-24T06:19:39;24.15;;;12.23;;
38783;SDS011;24531;45.502;12.238;2023-04-24T06:22:05;21.60;;;12.52;;
38783;SDS011;24531;45.502;12.238;2023-04-24T06:24:31;18.90;;;12.25;;
38783;SDS011;24531;45.502;12.238;2023-04-24T06:26:58;22.75;;;12.88;;
38783;SDS011;24531;45.502;12.238;2023-04-24T06:29:26;23.98;;;12.25;;
38783;SDS011;24531;45.502;12.238;2023-04-24T06:31:52;17.10;;;11.90;;
38783;SDS011;24531;45.502;12.238;2023-04-24T06:34:17;17.17;;;11.82;;
38783;SDS011;24531;45.502;12.238;2023-04-24T06:36:43;18.67;;;11.48;;
38783;SDS011;24531;45.502;12.238;2023-04-24T06:39:09;19.75;;;11.15;;
38783;SDS011;24531;45.502;12.238;2023-04-24T06:41:35;18.45;;;12.18;;
38783;SDS011;24531;45.502;12.238;2023-04-24T06:44:01;19.08;;;11.40;;
38783;SDS011;24531;45.502;12.238;2023-04-24T06:46:26;18.92;;;11.27;;
38783;SDS011;24531;45.502;12.238;2023-04-24T06:48:53;22.30;;;11.73;;
38783;SDS011;24531;45.502;12.238;2023-04-24T06:51:25;15.80;;;11.35;;
38783;SDS011;24531;45.502;12.238;2023-04-24T06:53:51;18.27;;;11.43;;
38783;SDS011;24531;45.502;12.238;2023-04-24T06:56:18;18.42;;;10.52;;
38783;SDS011;24531;45.502;12.238;2023-04-24T06:58:45;15.10;;;9.43;;
38783;SDS011;24531;45.502;12.238;2023-04-24T07:01:11;16.33;;;9.52;;
38783;SDS011;24531;45.502;12.238;2023-04-24T07:03:36;12.18;;;8.68;;
38783;SDS011;24531;45.502;12.238;2023-04-24T07:06:02;11.50;;;7.20;;
38783;SDS011;24531;45.502;12.238;2023-04-24T07:08:29;17.90;;;8.55;;
38783;SDS011;24531;45.502;12.238;2023-04-24T07:10:58;10.20;;;6.22;;
38783;SDS011;24531;45.502;12.238;2023-04-24T07:13:24;12.27;;;6.18;;
38783;SDS011;24531;45.502;12.238;2023-04-24T07:15:50;8.80;;;5.40;;
38783;SDS011;24531;45.502;12.238;2023-04-24T07:18:17;7.43;;;4.82;;
38783;SDS011;24531;45.502;12.238;2023-04-24T07:20:43;7.22;;;4.95;;
38783;SDS011;24531;45.502;12.238;2023-04-24T07:23:09;8.95;;;5.50;;
38783;SDS011;24531;45.502;12.238;2023-04-24T07:25:35;6.93;;;4.97;;
38783;SDS011;24531;45.502;12.238;2023-04-24T07:28:01;15.20;;;5.20;;
38783;SDS011;24531;45.502;12.238;2023-04-24T07:30:26;7.65;;;4.85;;
38783;SDS011;24531;45.502;12.238;2023-04-24T07:32:54;7.95;;;5.03;;
38783;SDS011;24531;45.502;12.238;2023-04-24T07:35:20;9.38;;;4.80;;
38783;SDS011;24531;45.502;12.238;2023-04-24T07:37:46;14.00;;;5.53;;
38783;SDS011;24531;45.502;12.238;2023-04-24T07:40:12;7.93;;;5.25;;
38783;SDS011;24531;45.502;12.238;2023-04-24T07:42:38;11.13;;;5.90;;
38783;SDS011;24531;45.502;12.238;2023-04-24T07:45:05;8.32;;;5.47;;
38783;SDS011;24531;45.502;12.238;2023-04-24T07:47:31;8.52;;;5.70;;
38783;SDS011;24531;45.502;12.238;2023-04-24T07:49:58;10.80;;;5.63;;
38783;SDS011;24531;45.502;12.238;2023-04-24T07:52:24;9.15;;;6.10;;
38783;SDS011;24531;45.502;12.238;2023-04-24T07:54:50;11.32;;;5.75;;
38783;SDS011;24531;45.502;12.238;2023-04-24T07:57:17;9.13;;;5.78;;
38783;SDS011;24531;45.502;12.238;2023-04-24T07:59:43;8.73;;;5.63;;
38783;SDS011;24531;45.502;12.238;2023-04-24T08:02:08;12.90;;;5.95;;
38783;SDS011;24531;45.502;12.238;2023-04-24T08:04:34;7.97;;;6.00;;
38783;SDS011;24531;45.502;12.238;2023-04-24T08:07:00;8.85;;;4.60;;
38783;SDS011;24531;45.502;12.238;2023-04-24T08:09:25;10.23;;;5.18;;
38783;SDS011;24531;45.502;12.238;2023-04-24T08:11:51;8.05;;;5.65;;
38783;SDS011;24531;45.502;12.238;2023-04-24T08:14:18;8.85;;;5.30;;
38783;SDS011;24531;45.502;12.238;2023-04-24T08:16:43;10.57;;;6.18;;
38783;SDS011;24531;45.502;12.238;2023-04-24T08:19:09;10.23;;;6.25;;
38783;SDS011;24531;45.502;12.238;2023-04-24T08:21:38;9.27;;;6.25;;
38783;SDS011;24531;45.502;12.238;2023-04-24T08:24:04;15.15;;;9.13;;
38783;SDS011;24531;45.502;12.238;2023-04-24T08:26:32;14.52;;;12.13;;
38783;SDS011;24531;45.502;12.238;2023-04-24T08:28:58;12.35;;;8.23;;
38783;SDS011;24531;45.502;12.238;2023-04-24T08:31:24;12.55;;;8.13;;
38783;SDS011;24531;45.502;12.238;2023-04-24T08:33:51;10.98;;;8.18;;
38783;SDS011;24531;45.502;12.238;2023-04-24T08:36:16;10.65;;;7.18;;
38783;SDS011;24531;45.502;12.238;2023-04-24T08:38:42;7.18;;;6.07;;
38783;SDS011;24531;45.502;12.238;2023-04-24T08:41:07;10.95;;;6.35;;
38783;SDS011;24531;45.502;12.238;2023-04-24T08:43:34;7.63;;;6.70;;
38783;SDS011;24531;45.502;12.238;2023-04-24T08:46:03;9.57;;;6.10;;
38783;SDS011;24531;45.502;12.238;2023-04-24T08:48:29;7.90;;;6.40;;
38783;SDS011;24531;45.502;12.238;2023-04-24T08:50:56;6.95;;;5.82;;
38783;SDS011;24531;45.502;12.238;2023-04-24T08:53:22;6.10;;;4.80;;
38783;SDS011;24531;45.502;12.238;2023-04-24T08:55:50;9.93;;;5.68;;
38783;SDS011;24531;45.502;12.238;2023-04-24T08:58:16;9.85;;;6.75;;
38783;SDS011;24531;45.502;12.238;2023-04-24T09:00:43;11.90;;;6.55;;
38783;SDS011;24531;45.502;12.238;2023-04-24T09:03:12;7.97;;;6.88;;
38783;SDS011;24531;45.502;12.238;2023-04-24T09:05:42;8.00;;;5.90;;
38783;SDS011;24531;45.502;12.238;2023-04-24T09:08:10;7.15;;;6.03;;
38783;SDS011;24531;45.502;12.238;2023-04-24T09:10:38;8.30;;;6.10;;
38783;SDS011;24531;45.502;12.238;2023-04-24T09:13:05;8.93;;;7.10;;
38783;SDS011;24531;45.502;12.238;2023-04-24T09:15:34;7.70;;;5.70;;
38783;SDS011;24531;45.502;12.238;2023-04-24T09:18:00;8.13;;;5.57;;
38783;SDS011;24531;45.502;12.238;2023-04-24T09:20:26;7.03;;;5.60;;
38783;SDS011;24531;45.502;12.238;2023-04-24T09:22:54;8.20;;;5.88;;
38783;SDS011;24531;45.502;12.238;2023-04-24T09:25:22;9.05;;;7.20;;
38783;SDS011;24531;45.502;12.238;2023-04-24T09:27:53;8.45;;;6.00;;
38783;SDS011;24531;45.502;12.238;2023-04-24T09:30:22;7.45;;;5.70;;
38783;SDS011;24531;45.502;12.238;2023-04-24T09:32:48;7.72;;;5.82;;
38783;SDS011;24531;45.502;12.238;2023-04-24T09:35:14;6.80;;;5.75;;
38783;SDS011;24531;45.502;12.238;2023-04-24T09:42:39;9.40;;;4.57;;
38783;SDS011;24531;45.502;12.238;2023-04-24T09:45:10;7.45;;;4.45;;
38783;SDS011;24531;45.502;12.238;2023-04-24T09:47:39;5.60;;;3.15;;
38783;SDS011;24531;45.502;12.238;2023-04-24T09:50:09;5.55;;;4.15;;
38783;SDS011;24531;45.502;12.238;2023-04-24T09:52:59;6.03;;;3.92;;
38783;SDS011;24531;45.502;12.238;2023-04-24T09:55:27;4.68;;;3.08;;
38783;SDS011;24531;45.502;12.238;2023-04-24T09:57:54;5.15;;;3.22;;
38783;SDS011;24531;45.502;12.238;2023-04-24T10:02:50;6.40;;;3.72;;
38783;SDS011;24531;45.502;12.238;2023-04-24T10:05:22;5.05;;;3.13;;
38783;SDS011;24531;45.502;12.238;2023-04-24T10:07:48;6.05;;;3.58;;
38783;SDS011;24531;45.502;12.238;2023-04-24T10:10:14;5.55;;;3.30;;
38783;SDS011;24531;45.502;12.238;2023-04-24T10:12:41;5.20;;;2.75;;
38783;SDS011;24531;45.502;12.238;2023-04-24T10:15:09;4.28;;;2.55;;
38783;SDS011;24531;45.502;12.238;2023-04-24T10:17:37;3.03;;;2.50;;
38783;SDS011;24531;45.502;12.238;2023-04-24T10:20:04;4.97;;;3.13;;
38783;SDS011;24531;45.502;12.238;2023-04-24T10:22:31;4.25;;;2.47;;
38783;SDS011;24531;45.502;12.238;2023-04-24T10:24:58;4.60;;;3.00;;
38783;SDS011;24531;45.502;12.238;2023-04-24T10:27:25;7.25;;;3.03;;
38783;SDS011;24531;45.502;12.238;2023-04-24T10:29:52;6.70;;;2.80;;
38783;SDS011;24531;45.502;12.238;2023-04-24T10:32:18;6.32;;;2.47;;
38783;SDS011;24531;45.502;12.238;2023-04-24T10:34:44;5.30;;;2.35;;
38783;SDS011;24531;45.502;12.238;2023-04-24T10:37:10;3.33;;;2.42;;
38783;SDS011;24531;45.502;12.238;2023-04-24T10:39:36;3.22;;;2.92;;
38783;SDS011;24531;45.502;12.238;2023-04-24T10:42:13;2.70;;;2.05;;
38783;SDS011;24531;45.502;12.238;2023-04-24T10:44:42;6.78;;;3.00;;
38783;SDS011;24531;45.502;12.238;2023-04-24T10:47:12;6.63;;;2.92;;
38783;SDS011;24531;45.502;12.238;2023-04-24T10:49:39;3.08;;;2.60;;
38783;SDS011;24531;45.502;12.238;2023-04-24T10:52:05;3.85;;;2.70;;
38783;SDS011;24531;45.502;12.238;2023-04-24T11:00:10;2.83;;;2.00;;
38783;SDS011;24531;45.502;12.238;2023-04-24T11:02:45;3.00;;;1.90;;
38783;SDS011;24531;45.502;12.238;2023-04-24T11:10:47;1.95;;;1.25;;
38783;SDS011;24531;45.502;12.238;2023-04-24T11:13:23;1.58;;;1.10;;
38783;SDS011;24531;45.502;12.238;2023-04-24T11:18:40;1.40;;;1.13;;
38783;SDS011;24531;45.502;12.238;2023-04-24T11:21:16;1.70;;;0.93;;
38783;SDS011;24531;45.502;12.238;2023-04-24T11:23:42;1.17;;;0.75;;
38783;SDS011;24531;45.502;12.238;2023-04-24T11:26:09;0.60;;;0.60;;
38783;SDS011;24531;45.502;12.238;2023-04-24T11:28:37;3.85;;;0.85;;
38783;SDS011;24531;45.502;12.238;2023-04-24T11:34:09;1.67;;;1.00;;
38783;SDS011;24531;45.502;12.238;2023-04-24T11:36:37;0.75;;;0.40;;
38783;SDS011;24531;45.502;12.238;2023-04-24T11:39:03;0.55;;;0.50;;
38783;SDS011;24531;45.502;12.238;2023-04-24T11:41:29;1.55;;;0.60;;
38783;SDS011;24531;45.502;12.238;2023-04-24T11:43:55;0.30;;;0.30;;
38783;SDS011;24531;45.502;12.238;2023-04-24T11:46:22;0.77;;;0.35;;
38783;SDS011;24531;45.502;12.238;2023-04-24T11:48:47;2.25;;;0.50;;
38783;SDS011;24531;45.502;12.238;2023-04-24T11:51:13;0.47;;;0.38;;
38783;SDS011;24531;45.502;12.238;2023-04-24T11:53:39;0.30;;;0.15;;
38783;SDS011;24531;45.502;12.238;2023-04-24T11:56:05;0.57;;;0.55;;
38783;SDS011;24531;45.502;12.238;2023-04-24T11:58:37;0.50;;;0.50;;
38783;SDS011;24531;45.502;12.238;2023-04-24T12:03:30;0.55;;;0.28;;
38783;SDS011;24531;45.502;12.238;2023-04-24T12:06:06;0.30;;;0.30;;
38783;SDS011;24531;45.502;12.238;2023-04-24T12:08:34;0.47;;;0.35;;
38783;SDS011;24531;45.502;12.238;2023-04-24T12:11:01;1.13;;;0.52;;
38783;SDS011;24531;45.502;12.238;2023-04-24T12:13:30;0.40;;;0.40;;
38783;SDS011;24531;45.502;12.238;2023-04-24T12:15:56;0.88;;;0.25;;
38783;SDS011;24531;45.502;12.238;2023-04-24T12:18:22;1.05;;;0.40;;
38783;SDS011;24531;45.502;12.238;2023-04-24T12:20:49;0.20;;;0.20;;
38783;SDS011;24531;45.502;12.238;2023-04-24T12:23:33;0.45;;;0.40;;
38783;SDS011;24531;45.502;12.238;2023-04-24T12:26:00;0.40;;;0.40;;
38783;SDS011;24531;45.502;12.238;2023-04-24T12:28:36;0.20;;;0.20;;
38783;SDS011;24531;45.502;12.238;2023-04-24T12:31:03;1.58;;;0.30;;
38783;SDS011;24531;45.502;12.238;2023-04-24T12:33:31;0.90;;;0.50;;
38783;SDS011;24531;45.502;12.238;2023-04-24T12:35:59;0.47;;;0.40;;
38783;SDS011;24531;45.502;12.238;2023-04-24T12:38:26;0.68;;;0.40;;
38783;SDS011;24531;45.502;12.238;2023-04-24T12:43:53;0.95;;;0.40;;
38783;SDS011;24531;45.502;12.238;2023-04-24T12:46:21;0.98;;;0.57;;
38783;SDS011;24531;45.502;12.238;2023-04-24T12:48:47;0.40;;;0.20;;
38783;SDS011;24531;45.502;12.238;2023-04-24T12:51:13;1.80;;;0.40;;
38783;SDS011;24531;45.502;12.238;2023-04-24T12:53:41;0.40;;;0.30;;
38783;SDS011;24531;45.502;12.238;2023-04-24T12:56:07;1.35;;;0.75;;
38783;SDS011;24531;45.502;12.238;2023-04-24T12:58:33;1.75;;;0.30;;
38783;SDS011;24531;45.502;12.238;2023-04-24T13:00:58;0.80;;;0.50;;
38783;SDS011;24531;45.502;12.238;2023-04-24T13:03:25;0.10;;;0.10;;
38783;SDS011;24531;45.502;12.238;2023-04-24T13:05:51;0.45;;;0.30;;
38783;SDS011;24531;45.502;12.238;2023-04-24T13:08:17;1.13;;;0.30;;
38783;SDS011;24531;45.502;12.238;2023-04-24T13:10:45;1.05;;;0.40;;
38783;SDS011;24531;45.502;12.238;2023-04-24T13:13:11;0.28;;;0.20;;
38783;SDS011;24531;45.502;12.238;2023-04-24T13:15:39;0.40;;;0.40;;
38783;SDS011;24531;45.502;12.238;2023-04-24T13:18:08;0.77;;;0.35;;
38783;SDS011;24531;45.502;12.238;2023-04-24T13:20:33;0.88;;;0.30;;
38783;SDS011;24531;45.502;12.238;2023-04-24T13:23:00;0.50;;;0.30;;
38783;SDS011;24531;45.502;12.238;2023-04-24T13:25:26;0.40;;;0.40;;
38783;SDS011;24531;45.502;12.238;2023-04-24T13:27:51;0.80;;;0.30;;
38783;SDS011;24531;45.502;12.238;2023-04-24T13:30:17;1.00;;;0.28;;
38783;SDS011;24531;45.502;12.238;2023-04-24T13:32:43;0.38;;;0.38;;
38783;SDS011;24531;45.502;12.238;2023-04-24T13:35:09;0.52;;;0.50;;
38783;SDS011;24531;45.502;12.238;2023-04-24T13:37:34;0.45;;;0.45;;
38783;SDS011;24531;45.502;12.238;2023-04-24T13:40:00;1.90;;;0.57;;
38783;SDS011;24531;45.502;12.238;2023-04-24T13:42:26;1.13;;;0.70;;
38783;SDS011;24531;45.502;12.238;2023-04-24T13:44:51;0.63;;;0.40;;
38783;SDS011;24531;45.502;12.238;2023-04-24T13:47:17;0.65;;;0.40;;
38783;SDS011;24531;45.502;12.238;2023-04-24T13:49:43;0.73;;;0.57;;
38783;SDS011;24531;45.502;12.238;2023-04-24T13:52:08;1.48;;;0.80;;
38783;SDS011;24531;45.502;12.238;2023-04-24T13:54:35;1.38;;;0.85;;
38783;SDS011;24531;45.502;12.238;2023-04-24T13:57:01;0.50;;;0.50;;
38783;SDS011;24531;45.502;12.238;2023-04-24T13:59:29;0.82;;;0.68;;
38783;SDS011;24531;45.502;12.238;2023-04-24T14:01:55;1.75;;;0.90;;
38783;SDS011;24531;45.502;12.238;2023-04-24T14:04:20;0.77;;;0.70;;
38783;SDS011;24531;45.502;12.238;2023-04-24T14:06:49;0.50;;;0.40;;
38783;SDS011;24531;45.502;12.238;2023-04-24T14:09:15;0.95;;;0.32;;
38783;SDS011;24531;45.502;12.238;2023-04-24T14:11:41;1.10;;;0.60;;
38783;SDS011;24531;45.502;12.238;2023-04-24T14:14:07;1.27;;;0.50;;
38783;SDS011;24531;45.502;12.238;2023-04-24T14:16:33;7.63;;;3.90;;
38783;SDS011;24531;45.502;12.238;2023-04-24T14:18:59;2.85;;;1.35;;
38783;SDS011;24531;45.502;12.238;2023-04-24T14:21:25;1.23;;;0.73;;
38783;SDS011;24531;45.502;12.238;2023-04-24T14:23:51;0.30;;;0.30;;
38783;SDS011;24531;45.502;12.238;2023-04-24T14:26:16;5.18;;;3.00;;
38783;SDS011;24531;45.502;12.238;2023-04-24T14:28:42;3.22;;;2.13;;
38783;SDS011;24531;45.502;12.238;2023-04-24T14:31:08;1.83;;;1.35;;
38783;SDS011;24531;45.502;12.238;2023-04-24T14:33:34;2.45;;;0.82;;
38783;SDS011;24531;45.502;12.238;2023-04-24T14:35:59;1.45;;;0.30;;
38783;SDS011;24531;45.502;12.238;2023-04-24T14:38:27;0.68;;;0.45;;
38783;SDS011;24531;45.502;12.238;2023-04-24T14:40:53;1.20;;;0.40;;
38783;SDS011;24531;45.502;12.238;2023-04-24T14:43:18;0.35;;;0.28;;
38783;SDS011;24531;45.502;12.238;2023-04-24T14:45:44;0.10;;;0.10;;
38783;SDS011;24531;45.502;12.238;2023-04-24T14:48:10;0.43;;;0.28;;
38783;SDS011;24531;45.502;12.238;2023-04-24T14:50:36;0.43;;;0.30;;